Seinäjoki

Airport
ICAO code: 
EFSI
IATA Code: 
SJY
Summary
ICAO Region: 
EUR
Territory: 
Location: 
Ilmajoki, South Ostrobothnia
Serving: 
Seinajoki
Elevation: 
302 ft
Coordinates: 
Aerial View: 
62° 41' 37.428" N, 22° 49' 44.112" E
Metar
Observation
EFSI 021250Z AUTO 03003KT 360V070 9999 OVC016 M08/M09 Q0994
Station
Seinajoki-Ilmajok
Date/Time
2021-12-02 12:50:00
Wind direction
30°
Wind speed
03 kts
Lowest cloud amount
overcast
Temperature
-8°C
Dew point
-9°C
Humidity
92%
QNH
994 hPa
Weather condition
n/a

Seinäjoki Airport is an airport serving Seinäjoki, a city in the Southern Ostrobothnia region of Finland. It is located 6 nm south-southwest of the city, in the municipality of Ilmajoki.

Climatology

Subarctic climate (Köppen climate classification Dfc)

Runways

Designator Length Width Surface Rops
14/32 1543 30 ASP No/No
Airport map: 
Aerial View: 

Accidents and Serious Incidents at or in the vicinity of EFSI

SKYbrary Partners:

Safety knowledge contributed by: